createdAt,value
2018-07-09T00:00:40.757Z,24.40
2018-07-09T00:03:12.590Z,24.80
2018-07-09T00:05:43.288Z,24.20
2018-07-09T00:08:11.814Z,24.00
2018-07-09T00:10:51.290Z,24.20
2018-07-09T00:13:19.850Z,24.30
2018-07-09T00:15:47.421Z,24.20
2018-07-09T00:18:15.200Z,24.40
2018-07-09T00:20:42.966Z,24.60
2018-07-09T00:23:10.658Z,24.50
2018-07-09T00:25:38.547Z,24.20
2018-07-09T00:28:06.217Z,24.60
2018-07-09T00:30:34.001Z,24.60
2018-07-09T00:33:01.640Z,24.70
2018-07-09T00:35:29.337Z,24.50
2018-07-09T00:37:58.087Z,24.80
2018-07-09T00:40:30.071Z,24.80
2018-07-09T00:42:57.904Z,25.40
2018-07-09T00:45:25.568Z,24.60
2018-07-09T00:47:53.256Z,24.90
2018-07-09T00:50:20.847Z,25.30
2018-07-09T00:52:49.482Z,25.20
2018-07-09T00:55:17.291Z,25.90
2018-07-09T00:57:45.928Z,25.20
2018-07-09T01:00:13.607Z,25.60
2018-07-09T01:02:41.247Z,25.50
2018-07-09T01:05:10.027Z,25.40
2018-07-09T01:07:37.797Z,25.40
2018-07-09T01:10:06.339Z,25.70
2018-07-09T01:12:33.953Z,25.60
2018-07-09T01:15:01.695Z,25.70
2018-07-09T01:17:29.614Z,25.70
2018-07-09T01:19:57.482Z,25.90
2018-07-09T01:22:25.316Z,25.80
2018-07-09T01:24:54.077Z,25.80
2018-07-09T01:27:21.975Z,26.20
2018-07-09T01:29:50.712Z,26.40
2018-07-09T01:32:19.419Z,26.30
2018-07-09T01:34:49.247Z,26.50
2018-07-09T01:37:16.921Z,26.10
2018-07-09T01:39:44.515Z,26.60
2018-07-09T01:42:12.187Z,26.50
2018-07-09T01:44:39.766Z,26.50
2018-07-09T01:47:07.487Z,26.60
2018-07-09T01:49:35.214Z,26.70
2018-07-09T01:52:03.317Z,26.90
2018-07-09T01:54:31.066Z,27.10
2018-07-09T01:56:59.726Z,27.10
2018-07-09T01:59:28.026Z,27.20
2018-07-09T02:01:56.728Z,27.30
2018-07-09T02:04:25.345Z,27.40
2018-07-09T02:06:52.945Z,27.30
2018-07-09T02:09:20.565Z,27.40
2018-07-09T02:11:48.181Z,27.60
2018-07-09T02:14:15.697Z,27.70
2018-07-09T02:16:44.336Z,27.60
2018-07-09T02:19:11.987Z,27.60
2018-07-09T02:21:40.654Z,28.40
2018-07-09T02:24:08.242Z,27.80
2018-07-09T02:26:35.978Z,28.00
2018-07-09T02:29:03.727Z,28.10
2018-07-09T02:31:31.350Z,28.20
2018-07-09T02:33:59.438Z,28.20
2018-07-09T02:36:28.367Z,28.40
2018-07-09T02:38:56.054Z,28.30
2018-07-09T02:41:23.677Z,28.70
2018-07-09T02:43:52.394Z,28.60
2018-07-09T02:46:20.207Z,28.50
2018-07-09T02:48:47.863Z,28.50
2018-07-09T02:51:15.548Z,29.10
2018-07-09T02:53:43.277Z,28.80
2018-07-09T02:56:11.200Z,29.00
2018-07-09T02:58:39.943Z,28.70
2018-07-09T03:01:12.910Z,28.90
2018-07-09T03:03:40.708Z,29.00
2018-07-09T03:06:08.272Z,29.10
2018-07-09T03:08:36.984Z,29.30
2018-07-09T03:11:06.207Z,29.40
2018-07-09T03:13:34.036Z,29.60
2018-07-09T03:16:01.676Z,29.40
2018-07-09T03:18:29.267Z,29.40
2018-07-09T03:20:57.064Z,29.70
2018-07-09T03:23:24.770Z,30.00
2018-07-09T03:25:52.323Z,30.00
2018-07-09T03:28:20.068Z,30.10
2018-07-09T03:30:47.829Z,30.10
2018-07-09T03:33:15.602Z,30.00
2018-07-09T03:35:50.450Z,30.00
2018-07-09T03:38:18.428Z,30.00
2018-07-09T03:40:47.141Z,30.00
2018-07-09T03:43:15.897Z,30.00
2018-07-09T03:45:44.083Z,30.00
2018-07-09T03:48:12.139Z,30.00
2018-07-09T03:50:40.785Z,30.00
2018-07-09T03:53:08.442Z,30.00
2018-07-09T03:55:37.103Z,30.50
2018-07-09T03:58:04.972Z,30.70
2018-07-09T04:00:40.252Z,30.90
2018-07-09T04:03:08.210Z,30.80
2018-07-09T04:05:35.878Z,31.00
2018-07-09T04:08:03.635Z,31.20
2018-07-09T04:10:32.286Z,31.20
2018-07-09T04:12:59.917Z,31.40
2018-07-09T04:15:28.620Z,31.20
2018-07-09T04:17:56.318Z,31.00
2018-07-09T04:20:24.030Z,31.40
2018-07-09T04:22:52.681Z,30.90
2018-07-09T04:25:22.311Z,30.80
2018-07-09T04:27:50.165Z,31.30
2018-07-09T04:30:18.097Z,30.90
2018-07-09T04:32:45.748Z,31.80
2018-07-09T04:35:13.721Z,31.10
2018-07-09T04:37:42.588Z,31.10
2018-07-09T04:40:12.886Z,31.10
2018-07-09T04:42:42.881Z,31.00
2018-07-09T04:45:10.542Z,31.00
2018-07-09T04:47:38.228Z,31.10
2018-07-09T04:50:07.094Z,30.80
2018-07-09T04:52:36.815Z,31.20
2018-07-09T04:55:04.717Z,31.20
2018-07-09T04:57:32.521Z,31.20
2018-07-09T05:00:00.148Z,30.40
2018-07-09T05:02:30.022Z,30.90
2018-07-09T05:04:57.721Z,31.30
2018-07-09T05:07:25.478Z,31.30
2018-07-09T05:09:53.127Z,30.70
2018-07-09T05:12:22.223Z,31.40
2018-07-09T05:14:50.138Z,30.80
2018-07-09T05:17:20.544Z,30.50
2018-07-09T05:19:48.340Z,30.60
2018-07-09T05:22:17.058Z,30.70
2018-07-09T05:24:44.848Z,30.80
2018-07-09T05:27:12.888Z,30.80
2018-07-09T05:29:41.744Z,30.90
2018-07-09T05:32:09.400Z,30.90
2018-07-09T05:34:37.122Z,30.70
2018-07-09T05:37:04.780Z,30.70
2018-07-09T05:39:32.475Z,30.80
2018-07-09T05:42:00.156Z,30.70
2018-07-09T05:44:27.879Z,30.60
2018-07-09T05:46:55.719Z,31.00
2018-07-09T05:49:24.472Z,30.80
2018-07-09T05:51:53.279Z,30.80
2018-07-09T05:54:22.011Z,31.00
2018-07-09T05:56:53.282Z,31.00
2018-07-09T05:59:21.981Z,31.10
2018-07-09T06:01:50.604Z,31.10
2018-07-09T06:04:18.494Z,31.20
2018-07-09T06:06:50.345Z,31.30
2018-07-09T06:09:21.571Z,31.50
2018-07-09T06:11:49.931Z,30.60
2018-07-09T06:14:17.742Z,30.00
2018-07-09T06:16:46.419Z,31.10
2018-07-09T06:19:22.210Z,30.20
2018-07-09T06:21:50.937Z,29.60
2018-07-09T06:24:18.789Z,30.10
2018-07-09T06:26:46.418Z,30.00
2018-07-09T06:29:15.231Z,29.80
2018-07-09T06:31:42.982Z,29.50
2018-07-09T06:34:12.825Z,30.10
2018-07-09T06:36:40.770Z,29.80
2018-07-09T06:39:08.391Z,29.80
2018-07-09T06:41:36.921Z,29.60
2018-07-09T06:44:04.716Z,29.30
2018-07-09T06:46:32.471Z,29.90
2018-07-09T06:49:00.045Z,30.60
2018-07-09T06:51:27.759Z,29.20
2018-07-09T06:53:57.393Z,29.60
2018-07-09T06:56:25.074Z,29.50
2018-07-09T06:58:52.736Z,29.40
2018-07-09T07:01:21.274Z,29.90
2018-07-09T07:03:48.936Z,29.30
2018-07-09T07:06:17.601Z,28.90
2018-07-09T07:09:04.306Z,29.00
2018-07-09T07:11:33.448Z,28.30
2018-07-09T07:14:01.115Z,28.80
2018-07-09T07:16:28.662Z,28.80
2018-07-09T07:18:56.346Z,28.50
2018-07-09T07:21:24.002Z,28.20
2018-07-09T07:23:52.191Z,28.10
2018-07-09T07:26:20.799Z,28.10
2018-07-09T07:28:48.640Z,28.10
2018-07-09T07:31:16.286Z,27.70
2018-07-09T07:33:43.915Z,27.80
2018-07-09T07:36:11.525Z,27.80
2018-07-09T07:38:39.826Z,28.00
2018-07-09T07:41:07.401Z,27.90
2018-07-09T07:43:36.278Z,27.50
2018-07-09T07:46:07.456Z,27.30
2018-07-09T07:48:38.993Z,27.90
2018-07-09T07:51:06.730Z,28.10
2018-07-09T07:53:35.437Z,27.70
2018-07-09T07:56:03.032Z,27.80
2018-07-09T07:58:30.754Z,27.90
2018-07-09T08:00:59.449Z,27.80
2018-07-09T08:03:27.077Z,27.60
2018-07-09T08:05:54.690Z,27.70
2018-07-09T08:08:22.399Z,27.20
2018-07-09T08:10:51.143Z,27.10
2018-07-09T08:13:29.490Z,27.50
2018-07-09T08:15:50.761Z,27.00
2018-07-09T08:18:18.464Z,26.50
2018-07-09T08:20:46.335Z,26.60
2018-07-09T08:23:15.273Z,27.00
2018-07-09T08:25:42.912Z,26.70
2018-07-09T08:28:10.633Z,27.00
2018-07-09T08:30:39.327Z,27.30
2018-07-09T08:33:06.945Z,27.10
2018-07-09T08:35:34.555Z,26.90
2018-07-09T08:38:02.276Z,27.20
2018-07-09T08:40:30.862Z,26.70
2018-07-09T08:42:58.528Z,26.80
2018-07-09T08:45:26.208Z,26.70
2018-07-09T08:47:54.130Z,27.40
2018-07-09T08:50:21.932Z,27.30
2018-07-09T08:52:49.701Z,26.90
2018-07-09T08:55:17.428Z,27.10
2018-07-09T08:57:45.013Z,27.10
2018-07-09T09:00:15.771Z,27.10
2018-07-09T09:02:43.423Z,27.10
2018-07-09T09:05:12.306Z,26.40
2018-07-09T09:07:39.941Z,27.00
2018-07-09T09:10:07.582Z,27.10
2018-07-09T09:12:35.143Z,26.60
2018-07-09T09:15:02.849Z,26.80
2018-07-09T09:17:30.566Z,27.00
2018-07-09T09:19:59.240Z,26.70
2018-07-09T09:22:27.110Z,26.70
2018-07-09T09:24:55.709Z,26.90
2018-07-09T09:27:25.350Z,26.80
2018-07-09T09:29:53.023Z,26.10
2018-07-09T09:32:20.700Z,26.30
2018-07-09T09:34:49.620Z,25.70
2018-07-09T09:37:17.331Z,26.40
2018-07-09T09:39:50.554Z,26.00
2018-07-09T09:42:18.142Z,26.00
2018-07-09T09:44:45.740Z,26.00
2018-07-09T09:47:13.591Z,25.50
2018-07-09T09:49:41.231Z,25.50
2018-07-09T09:52:08.909Z,25.60
2018-07-09T09:54:37.585Z,25.60
2018-07-09T09:57:06.342Z,25.30
2018-07-09T09:59:37.750Z,25.80
2018-07-09T10:02:06.378Z,25.50
2018-07-09T10:04:34.071Z,25.80
2018-07-09T10:07:01.974Z,25.60
2018-07-09T10:09:29.692Z,25.70
2018-07-09T10:11:57.333Z,24.70
2018-07-09T10:14:25.099Z,25.50
2018-07-09T10:16:52.816Z,24.40
2018-07-09T10:19:20.521Z,24.00
2018-07-09T10:21:49.304Z,23.90
2018-07-09T10:24:16.970Z,23.30
2018-07-09T10:26:44.633Z,23.50
2018-07-09T10:29:13.294Z,23.60
2018-07-09T10:31:41.222Z,22.80
2018-07-09T10:34:08.811Z,22.40
2018-07-09T10:36:37.835Z,22.70
2018-07-09T10:39:06.494Z,22.10
2018-07-09T10:41:34.189Z,21.60
2018-07-09T10:44:01.862Z,21.90
2018-07-09T10:46:29.466Z,22.10
2018-07-09T10:48:57.133Z,20.90
2018-07-09T10:51:24.762Z,20.90
2018-07-09T10:53:52.432Z,20.00
2018-07-09T10:56:20.158Z,20.00
2018-07-09T10:58:47.820Z,20.80
2018-07-09T11:01:15.479Z,18.60
2018-07-09T11:03:43.054Z,18.70
2018-07-09T11:06:10.746Z,18.70
2018-07-09T11:08:38.488Z,18.20
2018-07-09T11:11:06.338Z,18.20
2018-07-09T11:13:34.006Z,18.40
2018-07-09T11:16:02.600Z,17.30
2018-07-09T11:18:31.267Z,16.90
2018-07-09T11:21:01.022Z,15.60
2018-07-09T11:23:30.659Z,15.80
2018-07-09T11:25:58.514Z,15.30
2018-07-09T11:28:31.268Z,15.80
2018-07-09T11:30:59.996Z,15.30
2018-07-09T11:33:27.754Z,15.50
2018-07-09T11:35:56.533Z,15.60
2018-07-09T11:38:24.353Z,14.80
2018-07-09T11:40:53.009Z,14.60
2018-07-09T11:43:22.651Z,14.60
2018-07-09T11:45:50.637Z,15.10
2018-07-09T11:48:18.352Z,14.90
2018-07-09T11:50:46.215Z,13.10
2018-07-09T11:53:15.867Z,13.10
2018-07-09T11:55:43.728Z,14.20
2018-07-09T11:58:11.378Z,13.00
2018-07-09T12:00:40.031Z,12.10
2018-07-09T12:03:08.584Z,12.80
2018-07-09T12:05:36.207Z,12.00
2018-07-09T12:08:05.307Z,11.70
2018-07-09T12:10:34.034Z,11.00
2018-07-09T12:13:01.644Z,11.80
2018-07-09T12:15:31.329Z,12.00
2018-07-09T12:17:58.884Z,11.30
2018-07-09T12:20:26.734Z,10.90
2018-07-09T12:22:54.404Z,10.70
2018-07-09T12:25:22.070Z,11.70
2018-07-09T12:27:50.846Z,11.20
2018-07-09T12:30:18.504Z,11.30
2018-07-09T12:32:46.170Z,10.90
2018-07-09T12:35:14.906Z,10.40
2018-07-09T12:37:43.697Z,10.30
2018-07-09T12:40:11.483Z,10.60
2018-07-09T12:42:39.362Z,10.80
2018-07-09T12:45:06.951Z,10.60
2018-07-09T12:47:34.837Z,9.80
2018-07-09T12:50:02.680Z,9.20
2018-07-09T12:52:30.319Z,9.00
2018-07-09T12:54:58.112Z,9.90
2018-07-09T12:57:26.025Z,8.40
2018-07-09T12:59:53.598Z,8.00
2018-07-09T13:02:21.275Z,8.30
2018-07-09T13:04:50.238Z,7.50
2018-07-09T13:07:18.227Z,7.20
2018-07-09T13:09:50.308Z,6.70
2018-07-09T13:12:23.662Z,6.40
2018-07-09T13:14:56.622Z,7.10
2018-07-09T13:17:24.210Z,6.60
2018-07-09T13:19:51.826Z,6.10
2018-07-09T13:22:19.741Z,7.20
2018-07-09T13:24:47.371Z,7.10
2018-07-09T13:27:15.035Z,6.70
2018-07-09T13:29:49.856Z,6.50
2018-07-09T13:32:17.508Z,6.40
2018-07-09T13:34:45.253Z,5.60
2018-07-09T13:37:12.980Z,4.90
2018-07-09T13:39:40.578Z,5.90
2018-07-09T13:42:09.532Z,6.80
2018-07-09T13:44:37.209Z,6.50
2018-07-09T13:47:05.263Z,6.00
2018-07-09T13:49:32.804Z,5.80
2018-07-09T13:52:00.709Z,7.50
2018-07-09T13:54:28.516Z,7.70
2018-07-09T13:56:56.309Z,8.20
2018-07-09T13:59:23.948Z,8.10
2018-07-09T14:01:52.651Z,9.00
2018-07-09T14:04:21.109Z,9.10
2018-07-09T14:06:49.900Z,9.60
2018-07-09T14:09:17.415Z,10.20
2018-07-09T14:11:44.995Z,9.90
2018-07-09T14:14:12.650Z,10.10
2018-07-09T14:16:41.324Z,11.00
2018-07-09T14:19:20.224Z,11.50
2018-07-09T14:21:47.898Z,11.20
2018-07-09T14:24:15.615Z,11.30
2018-07-09T14:26:43.246Z,11.60
2018-07-09T14:29:11.398Z,12.90
2018-07-09T14:31:39.119Z,12.20
2018-07-09T14:34:08.188Z,12.50
2018-07-09T14:36:35.851Z,12.80
2018-07-09T14:39:05.788Z,12.90
2018-07-09T14:41:34.461Z,13.10
2018-07-09T14:44:02.062Z,14.20
2018-07-09T14:46:29.854Z,14.50
2018-07-09T14:48:58.743Z,14.60
2018-07-09T14:51:26.347Z,14.60
2018-07-09T14:53:54.037Z,14.80
2018-07-09T14:56:21.639Z,15.20
2018-07-09T14:58:49.570Z,15.00
2018-07-09T15:01:17.191Z,15.10
2018-07-09T15:03:45.807Z,15.30
2018-07-09T15:06:15.282Z,14.70
2018-07-09T15:08:44.941Z,15.20
2018-07-09T15:11:12.854Z,15.10
2018-07-09T15:13:41.541Z,14.80
2018-07-09T15:16:10.134Z,14.90
2018-07-09T15:18:37.728Z,15.20
2018-07-09T15:21:05.547Z,14.60
2018-07-09T15:23:33.320Z,14.90
2018-07-09T15:26:00.897Z,15.00
2018-07-09T15:28:28.703Z,14.80
2018-07-09T15:30:56.363Z,14.50
2018-07-09T15:33:23.950Z,14.60
2018-07-09T15:35:52.580Z,14.60
2018-07-09T15:38:26.772Z,14.50
2018-07-09T15:40:55.458Z,14.30
2018-07-09T15:43:34.602Z,14.40
2018-07-09T15:46:03.716Z,14.40
2018-07-09T15:48:31.350Z,14.90
2018-07-09T15:50:58.982Z,14.70
2018-07-09T15:53:26.822Z,15.10
2018-07-09T15:55:55.863Z,15.40
2018-07-09T15:58:24.510Z,15.50
2018-07-09T16:00:52.036Z,15.90
2018-07-09T16:03:20.790Z,16.10
2018-07-09T16:05:48.649Z,16.50
2018-07-09T16:08:16.199Z,16.50
2018-07-09T16:10:43.857Z,16.30
2018-07-09T16:13:13.530Z,15.90
2018-07-09T16:15:43.811Z,16.00
2018-07-09T16:18:11.527Z,16.30
2018-07-09T16:20:39.663Z,16.40
2018-07-09T16:23:07.294Z,16.50
2018-07-09T16:25:35.534Z,16.30
2018-07-09T16:28:04.105Z,16.20
2018-07-09T16:30:31.767Z,16.50
2018-07-09T16:32:59.531Z,16.70
2018-07-09T16:35:27.439Z,17.00
2018-07-09T16:37:55.110Z,17.50
2018-07-09T16:40:23.886Z,17.20
2018-07-09T16:42:51.556Z,17.10
2018-07-09T16:45:19.144Z,17.20
2018-07-09T16:47:46.732Z,17.70
2018-07-09T16:50:14.332Z,17.70
2018-07-09T16:52:42.046Z,18.30
2018-07-09T16:55:09.554Z,18.20
2018-07-09T16:57:37.376Z,18.30
2018-07-09T17:00:05.102Z,18.60
2018-07-09T17:02:32.907Z,18.80
2018-07-09T17:05:00.496Z,19.00
2018-07-09T17:07:28.109Z,19.30
2018-07-09T17:09:55.719Z,19.50
2018-07-09T17:12:23.332Z,19.70
2018-07-09T17:14:51.948Z,19.90
2018-07-09T17:17:20.434Z,19.90
2018-07-09T17:19:48.142Z,20.00
2018-07-09T17:22:15.734Z,20.30
2018-07-09T17:24:43.428Z,20.30
2018-07-09T17:27:12.569Z,20.60
2018-07-09T17:29:40.154Z,20.60
2018-07-09T17:32:07.875Z,21.20
2018-07-09T17:34:35.561Z,21.00
2018-07-09T17:37:03.443Z,21.10
2018-07-09T17:39:32.278Z,21.20
2018-07-09T17:41:59.977Z,21.30
2018-07-09T17:44:28.670Z,21.50
2018-07-09T17:46:57.267Z,21.40
2018-07-09T17:49:24.990Z,21.40
2018-07-09T17:51:52.603Z,21.70
2018-07-09T17:54:20.470Z,22.00
2018-07-09T17:56:49.279Z,21.90
2018-07-09T17:59:17.107Z,22.00
2018-07-09T18:01:44.797Z,22.00
2018-07-09T18:04:12.563Z,22.30
2018-07-09T18:06:40.417Z,22.00
2018-07-09T18:09:08.145Z,22.70
2018-07-09T18:11:35.846Z,22.40
2018-07-09T18:14:03.722Z,22.90
2018-07-09T18:16:31.451Z,22.90
2018-07-09T18:18:59.402Z,22.60
2018-07-09T18:21:27.325Z,23.00
2018-07-09T18:23:55.525Z,23.10
2018-07-09T18:26:24.565Z,23.10
2018-07-09T18:28:52.200Z,23.20
2018-07-09T18:31:20.918Z,23.20
2018-07-09T18:33:49.726Z,23.60
2018-07-09T18:36:17.448Z,23.50
2018-07-09T18:38:46.219Z,23.60
2018-07-09T18:41:14.959Z,23.50
2018-07-09T18:43:43.957Z,23.40
2018-07-09T18:46:11.626Z,23.30
2018-07-09T18:48:43.090Z,23.60
2018-07-09T18:51:10.607Z,23.60
2018-07-09T18:53:39.614Z,23.90
2018-07-09T18:56:07.386Z,24.20
2018-07-09T18:58:36.220Z,24.40
2018-07-09T19:01:07.182Z,24.50
2018-07-09T19:03:36.063Z,24.40
2018-07-09T19:07:08.151Z,24.80
2018-07-09T19:09:40.158Z,24.80
2018-07-09T19:12:11.152Z,25.10
2018-07-09T19:14:43.909Z,25.20
2018-07-09T19:18:26.107Z,25.40
2018-07-09T19:21:37.183Z,25.40
2018-07-09T19:24:05.966Z,25.40
2018-07-09T19:26:33.755Z,25.30
2018-07-09T19:29:01.308Z,25.30
2018-07-09T19:31:27.916Z,25.30
2018-07-09T19:33:56.866Z,25.20
2018-07-09T19:36:23.418Z,25.30
2018-07-09T19:38:49.968Z,25.20
2018-07-09T19:41:20.504Z,25.40
2018-07-09T19:43:47.126Z,25.40
2018-07-09T19:46:13.713Z,26.10
2018-07-09T19:48:41.305Z,26.10
2018-07-09T19:51:08.243Z,26.20
2018-07-09T19:53:37.922Z,26.30
2018-07-09T19:56:19.606Z,26.20
2018-07-09T19:58:46.208Z,26.30
2018-07-09T20:01:14.598Z,26.10
2018-07-09T20:03:41.207Z,26.20
2018-07-09T20:06:07.686Z,26.20
2018-07-09T20:08:41.284Z,26.30
2018-07-09T20:11:13.357Z,26.60
2018-07-09T20:13:51.202Z,26.60
2018-07-09T20:16:23.308Z,26.70
2018-07-09T20:18:51.246Z,26.90
2018-07-09T20:21:30.599Z,26.90
2018-07-09T20:23:59.660Z,26.70
2018-07-09T20:26:26.258Z,26.70
2018-07-09T20:28:52.786Z,26.80
2018-07-09T20:31:21.417Z,26.90
2018-07-09T20:33:47.873Z,26.80
2018-07-09T20:36:15.410Z,27.10
2018-07-09T20:38:41.892Z,27.20
2018-07-09T20:41:08.416Z,27.10
2018-07-09T20:43:34.994Z,27.40
2018-07-09T20:46:01.516Z,27.40
2018-07-09T20:48:28.176Z,27.60
2018-07-09T20:50:54.714Z,27.60
2018-07-09T20:53:21.173Z,27.50
2018-07-09T20:55:47.682Z,27.50
2018-07-09T20:58:14.153Z,27.60
2018-07-09T21:00:41.983Z,27.70
2018-07-09T21:03:08.468Z,27.70
2018-07-09T21:05:35.049Z,27.70
2018-07-09T21:08:01.542Z,27.90
2018-07-09T21:10:28.052Z,27.90
2018-07-09T21:12:56.020Z,27.90
2018-07-09T21:15:23.579Z,28.00
2018-07-09T21:17:56.774Z,28.00
2018-07-09T21:20:23.383Z,28.10
2018-07-09T21:22:50.635Z,28.10
2018-07-09T21:25:17.583Z,28.20
2018-07-09T21:27:44.077Z,28.30
2018-07-09T21:30:10.756Z,28.30
2018-07-09T21:32:37.303Z,28.50
2018-07-09T21:35:04.229Z,28.50
2018-07-09T21:37:30.739Z,28.60
2018-07-09T21:39:57.229Z,28.50
2018-07-09T21:42:23.886Z,28.40
2018-07-09T21:44:50.573Z,28.50
2018-07-09T21:47:17.069Z,28.60
2018-07-09T21:49:43.582Z,28.50
2018-07-09T21:52:10.200Z,28.60
2018-07-09T21:54:36.742Z,28.80
2018-07-09T21:57:03.287Z,28.60
2018-07-09T21:59:29.746Z,28.60
2018-07-09T22:01:58.058Z,28.70
2018-07-09T22:04:24.789Z,28.70
2018-07-09T22:06:51.501Z,28.80
2018-07-09T22:09:18.138Z,28.70
2018-07-09T22:11:46.060Z,28.80
2018-07-09T22:14:19.779Z,28.80
2018-07-09T22:16:46.425Z,28.90
2018-07-09T22:19:13.259Z,29.10
2018-07-09T22:21:39.830Z,29.10
2018-07-09T22:24:06.328Z,29.10
2018-07-09T22:26:32.783Z,29.20
2018-07-09T22:28:59.254Z,29.40
2018-07-09T22:31:27.113Z,29.50
2018-07-09T22:33:54.864Z,29.70
2018-07-09T22:36:22.702Z,29.70
2018-07-09T22:38:50.738Z,29.80
2018-07-09T22:41:18.290Z,29.90
2018-07-09T22:43:57.134Z,30.00
2018-07-09T22:46:24.724Z,30.00
2018-07-09T22:48:52.716Z,30.10
2018-07-09T22:51:20.612Z,30.40
2018-07-09T22:53:48.062Z,30.60
2018-07-09T22:56:16.175Z,30.80
2018-07-09T22:58:44.372Z,30.80
2018-07-09T23:01:12.318Z,30.90
2018-07-09T23:03:39.983Z,31.50
2018-07-09T23:06:07.576Z,31.00
2018-07-09T23:08:35.243Z,31.10
2018-07-09T23:13:10.733Z,31.10
2018-07-09T23:15:50.254Z,31.40
2018-07-09T23:18:29.299Z,32.00
2018-07-09T23:23:07.891Z,32.10
2018-07-09T23:25:35.838Z,32.30
2018-07-09T23:28:02.283Z,32.80
2018-07-09T23:30:28.873Z,32.80
2018-07-09T23:32:55.333Z,32.80
2018-07-09T23:35:22.046Z,32.70
2018-07-09T23:37:48.769Z,32.80
2018-07-09T23:40:15.285Z,32.80
2018-07-09T23:42:41.881Z,32.80
2018-07-09T23:45:08.377Z,32.70
2018-07-09T23:47:35.070Z,32.70
2018-07-09T23:50:01.513Z,33.40
2018-07-09T23:52:28.166Z,33.70
2018-07-09T23:54:54.640Z,33.70
2018-07-09T23:58:08.118Z,33.90
